CheckWX is a tool to help pilots better visualize weather data.  It is not intended as a substitute for an official pre-flight weather briefing.

14:55:47 UTC

KDVK METAR
Stuart Powell Field Airport
Danville, Kentucky, USA
Current

21 mins ago

KDVK 171435Z AUTO 00000KT 10SM CLR 28/20 A3006 RMK AO2
Observed
Aug-17 @ 14:35 UTC
Visibility
10 SM
Flight Rules
VFR
Cloud Levels
  • Clear skies
Temperature
28°C / 82°F
Dewpoint
20°C / 68°F
Heat Index
29°C / 85°F
Humidity
62%
Altimeter
30.06" Hg
Pressure
1017.92 hPa
Previous

41 mins ago

KDVK 171415Z AUTO 20003KT 10SM CLR 27/20 A3006 RMK AO2
Observed
Aug-17 @ 14:15 UTC
Wind
  • 200° at 3 KTS
Visibility
10 SM
Flight Rules
VFR
Cloud Levels
  • Clear skies
Temperature
27°C / 81°F
Dewpoint
20°C / 68°F
Heat Index
29°C / 84°F
Humidity
66%
Altimeter
30.06" Hg
Pressure
1017.92 hPa
Previous

1 hour ago

KDVK 171355Z AUTO 00000KT 10SM CLR 27/19 A3005 RMK AO2
Observed
Aug-17 @ 13:55 UTC
Visibility
10 SM
Flight Rules
VFR
Cloud Levels
  • Clear skies
Temperature
27°C / 81°F
Dewpoint
19°C / 66°F
Heat Index
28°C / 83°F
Humidity
62%
Altimeter
30.05" Hg
Pressure
1017.62 hPa